Time;durP1;ratioP1;P1;durP2;ratioP2;P2;SDS_P1;SDS_P2;PMS_P1;PMS_P2;Temp;Humidity;BMP_temperature;BMP_pressure;BME280_temperature;BME280_humidity;BME280_pressure;Samples;Min_cycle;Max_cycle;Signal;HPM_P1;HPM_P2
2022/02/01 00:01:43;;;;;;;13.47;7.47;;;2.10;99.90;;;;;;4967167;28;20204;-81
2022/02/01 00:04:17;;;;;;;13.47;8.13;;;2.10;99.90;;;;;;4972729;28;20184;-80
2022/02/01 00:07:03;;;;;;;13.33;8.03;;;2.10;99.90;;;;;;4989158;28;20199;-77
2022/02/01 00:19:59;;;;;;;13.07;7.13;;;2.10;99.90;;;;;;4990469;28;20180;-77
2022/02/01 00:33:39;;;;;;;12.73;7.63;;;2.00;99.90;;;;;;4992529;28;20238;-79
2022/02/01 00:36:22;;;;;;;17.03;7.37;;;2.00;99.90;;;;;;4989360;28;20223;-78
2022/02/01 00:38:57;;;;;;;12.17;6.43;;;2.00;99.90;;;;;;4989583;28;20227;-80
2022/02/01 00:41:28;;;;;;;10.67;6.53;;;2.00;99.90;;;;;;4989882;28;20598;-77
2022/02/01 00:43:53;;;;;;;11.47;6.07;;;2.10;99.90;;;;;;4989346;28;20179;-80
2022/02/01 00:46:19;;;;;;;10.33;6.13;;;2.10;99.90;;;;;;4972105;28;20220;-78
2022/02/01 00:48:44;;;;;;;13.27;6.27;;;2.10;99.90;;;;;;4989424;28;20220;-78
2022/02/01 00:51:12;;;;;;;9.23;5.50;;;2.10;99.90;;;;;;4990005;28;20185;-80
2022/02/01 00:53:40;;;;;;;10.10;6.10;;;2.10;99.90;;;;;;4989639;28;20180;-78
2022/02/01 00:56:06;;;;;;;10.03;6.13;;;2.10;99.90;;;;;;4989278;28;20180;-81
2022/02/01 00:58:31;;;;;;;11.10;6.20;;;2.10;99.90;;;;;;4990026;28;20177;-77
2022/02/01 01:00:57;;;;;;;8.67;5.87;;;2.10;99.90;;;;;;4988952;28;20238;-80
2022/02/01 01:03:22;;;;;;;11.47;5.70;;;2.20;99.90;;;;;;4989067;28;20226;-76
2022/02/01 01:05:48;;;;;;;11.17;6.07;;;2.20;99.90;;;;;;4988648;28;20184;-77
2022/02/01 01:08:14;;;;;;;10.93;5.00;;;2.20;99.90;;;;;;4995027;28;20215;-78
2022/02/01 01:10:40;;;;;;;13.47;5.43;;;2.30;99.90;;;;;;4983360;28;20562;-78
2022/02/01 01:15:34;;;;;;;13.33;5.83;;;2.20;99.90;;;;;;5000668;28;20189;-75
2022/02/01 01:45:00;;;;;;;12.23;7.10;;;2.20;99.90;;;;;;4999609;28;21189;-77
2022/02/01 01:53:20;;;;;;;15.70;8.50;;;2.20;99.90;;;;;;4998548;28;20207;-78
2022/02/01 01:55:52;;;;;;;16.33;8.80;;;2.30;99.90;;;;;;4998515;28;20176;-75
2022/02/01 01:58:20;;;;;;;18.93;8.87;;;2.20;99.90;;;;;;4997525;28;20189;-78
2022/02/01 02:03:33;;;;;;;18.93;9.13;;;2.30;99.90;;;;;;4998926;28;20203;-78
2022/02/01 02:05:59;;;;;;;18.40;9.43;;;2.30;99.90;;;;;;4975510;28;20192;-77
2022/02/01 02:08:25;;;;;;;17.97;9.50;;;2.30;99.90;;;;;;4994028;28;20188;-79
2022/02/01 02:11:06;;;;;;;20.57;10.00;;;2.30;99.90;;;;;;4992533;28;20198;-78
2022/02/01 02:16:23;;;;;;;16.73;9.33;;;2.30;99.90;;;;;;4992826;28;20257;-77
2022/02/01 02:18:49;;;;;;;18.33;9.27;;;2.40;99.90;;;;;;4992930;28;20239;-81
2022/02/01 02:21:17;;;;;;;15.70;8.97;;;2.40;99.90;;;;;;4992251;28;20200;-77
2022/02/01 02:23:43;;;;;;;18.37;9.90;;;2.30;99.90;;;;;;4975039;28;20274;-77
2022/02/01 02:26:17;;;;;;;16.40;9.27;;;2.40;99.90;;;;;;4992367;28;20188;-79
2022/02/01 02:28:45;;;;;;;16.10;8.93;;;2.30;99.90;;;;;;4991615;28;20192;-78
2022/02/01 02:31:10;;;;;;;16.37;8.77;;;2.30;99.90;;;;;;4991490;28;20267;-78
2022/02/01 02:33:36;;;;;;;16.47;8.67;;;2.20;99.90;;;;;;4972532;28;20287;-77
2022/02/01 02:36:23;;;;;;;13.40;8.43;;;2.10;99.90;;;;;;4973015;28;20235;-77
2022/02/01 02:38:59;;;;;;;15.47;8.70;;;2.10;99.90;;;;;;4989920;28;20234;-77
2022/02/01 02:46:39;;;;;;;18.47;8.70;;;2.00;99.90;;;;;;4986949;28;20270;-77
2022/02/01 02:49:06;;;;;;;17.90;9.07;;;1.90;99.90;;;;;;4984676;28;20693;-76
2022/02/01 02:51:33;;;;;;;18.43;8.30;;;1.90;99.90;;;;;;4986748;28;20254;-75
2022/02/01 02:54:04;;;;;;;16.37;8.33;;;1.90;99.90;;;;;;4989246;28;20270;-81
2022/02/01 02:56:30;;;;;;;16.83;8.47;;;1.90;99.90;;;;;;4972186;28;20219;-79
2022/02/01 02:58:56;;;;;;;16.53;7.87;;;1.90;99.90;;;;;;4989041;28;20529;-79
2022/02/01 03:01:21;;;;;;;15.10;7.43;;;2.00;99.90;;;;;;4972155;28;20248;-80
2022/02/01 03:03:47;;;;;;;13.70;7.50;;;2.00;99.90;;;;;;4989775;28;20176;-76
2022/02/01 03:06:12;;;;;;;14.20;7.17;;;2.00;99.90;;;;;;4990328;28;20299;-78
2022/02/01 03:08:38;;;;;;;12.90;6.77;;;2.00;99.90;;;;;;4989532;28;20630;-79
2022/02/01 03:11:10;;;;;;;13.73;7.77;;;2.00;99.90;;;;;;4990036;28;20203;-78
2022/02/01 03:13:38;;;;;;;13.07;7.40;;;2.00;99.90;;;;;;4971625;28;20203;-76
2022/02/01 03:16:25;;;;;;;11.77;7.10;;;2.10;99.90;;;;;;4989925;28;20206;-77
2022/02/01 03:21:35;;;;;;;10.47;6.60;;;2.00;99.90;;;;;;4989226;28;20203;-77
2022/02/01 03:24:02;;;;;;;13.77;7.43;;;2.00;99.90;;;;;;4989312;28;20650;-76
2022/02/01 03:26:27;;;;;;;14.00;6.07;;;2.10;99.90;;;;;;4990267;28;20710;-77
2022/02/01 03:28:53;;;;;;;9.77;6.37;;;2.20;99.90;;;;;;4988954;28;20194;-74
2022/02/01 03:31:19;;;;;;;13.00;6.63;;;2.20;99.90;;;;;;4971888;28;20251;-78
2022/02/01 03:33:45;;;;;;;12.33;7.13;;;2.20;99.90;;;;;;4969963;28;20218;-79
2022/02/01 03:36:11;;;;;;;16.57;7.50;;;2.20;99.90;;;;;;4989261;28;20642;-78
2022/02/01 03:38:36;;;;;;;13.33;6.07;;;2.20;99.90;;;;;;4988359;28;20188;-77
2022/02/01 03:41:02;;;;;;;16.83;8.33;;;2.20;99.90;;;;;;4988225;28;20188;-78
2022/02/01 03:43:28;;;;;;;13.50;5.83;;;2.20;99.90;;;;;;4971127;28;20227;-79
2022/02/01 03:45:54;;;;;;;12.17;5.73;;;2.30;99.90;;;;;;4972198;28;20204;-79
2022/02/01 03:48:19;;;;;;;9.50;4.97;;;2.20;99.90;;;;;;4989775;28;20188;-76
2022/02/01 03:50:45;;;;;;;12.13;4.77;;;2.30;99.90;;;;;;4971928;28;20188;-76
2022/02/01 03:53:11;;;;;;;11.20;5.53;;;2.40;99.90;;;;;;4989132;28;20671;-79
2022/02/01 03:55:37;;;;;;;10.23;5.17;;;2.30;99.90;;;;;;4972399;28;20598;-80
2022/02/01 03:58:03;;;;;;;11.13;5.30;;;2.30;99.90;;;;;;4972296;28;20532;-79
2022/02/01 04:00:29;;;;;;;8.97;4.93;;;2.30;99.90;;;;;;4972043;28;20556;-81
2022/02/01 04:02:54;;;;;;;6.67;4.20;;;2.30;99.90;;;;;;4972356;28;20287;-79
2022/02/01 04:05:20;;;;;;;8.87;4.27;;;2.40;99.90;;;;;;4968926;28;20215;-80
2022/02/01 04:07:47;;;;;;;7.97;3.50;;;2.30;99.90;;;;;;4968372;28;20303;-77
2022/02/01 04:10:15;;;;;;;8.23;4.10;;;2.40;99.90;;;;;;4988019;28;20196;-78
2022/02/01 04:12:41;;;;;;;7.00;3.90;;;2.40;99.90;;;;;;4988833;28;20231;-78
2022/02/01 04:15:08;;;;;;;8.87;3.47;;;2.40;99.90;;;;;;4988397;28;20188;-78
2022/02/01 04:17:34;;;;;;;6.73;3.63;;;2.40;99.90;;;;;;4988892;28;20208;-77
2022/02/01 04:20:01;;;;;;;7.87;3.90;;;2.40;99.90;;;;;;4987896;28;20192;-75
2022/02/01 04:22:26;;;;;;;6.40;3.43;;;2.40;99.90;;;;;;4987453;28;20196;-79
2022/02/01 04:24:52;;;;;;;9.43;3.60;;;2.40;99.90;;;;;;4970441;28;20194;-77
2022/02/01 04:27:33;;;;;;;10.03;3.80;;;2.30;99.90;;;;;;4988541;28;20302;-76
2022/02/01 04:30:08;;;;;;;11.03;4.07;;;2.30;99.90;;;;;;4988620;28;20662;-76
2022/02/01 04:32:39;;;;;;;7.67;3.23;;;2.20;99.90;;;;;;4987690;28;20741;-78
2022/02/01 04:35:07;;;;;;;6.47;2.93;;;2.20;99.90;;;;;;4970627;28;20191;-82
2022/02/01 04:37:34;;;;;;;8.90;3.40;;;2.10;99.90;;;;;;4970376;28;20200;-79
2022/02/01 04:40:00;;;;;;;7.70;3.13;;;2.10;99.90;;;;;;4987733;28;20455;-77
2022/02/01 04:42:28;;;;;;;7.93;2.50;;;2.10;99.90;;;;;;4970462;28;20500;-80
2022/02/01 04:44:54;;;;;;;14.63;2.90;;;2.20;99.90;;;;;;4987893;28;20218;-80
2022/02/01 04:47:20;;;;;;;8.43;2.33;;;2.10;99.90;;;;;;4969563;28;20251;-78
2022/02/01 04:49:47;;;;;;;6.77;2.87;;;2.10;99.90;;;;;;4989188;28;20302;-80
2022/02/01 04:52:13;;;;;;;8.70;2.10;;;2.00;99.90;;;;;;4972213;28;20218;-78
2022/02/01 04:54:38;;;;;;;7.40;2.00;;;2.10;99.90;;;;;;4971564;28;20266;-76
2022/02/01 04:57:05;;;;;;;6.43;1.93;;;2.10;99.90;;;;;;4989208;28;20231;-78
2022/02/01 04:59:30;;;;;;;8.17;2.13;;;2.00;99.90;;;;;;4971519;28;20184;-77
2022/02/01 05:01:56;;;;;;;6.27;2.30;;;2.00;99.90;;;;;;4972505;28;20180;-79
2022/02/01 05:04:21;;;;;;;6.50;2.20;;;2.00;99.90;;;;;;4971596;28;20180;-79
2022/02/01 05:06:53;;;;;;;8.70;1.70;;;2.00;99.90;;;;;;4970912;28;20208;-79
2022/02/01 05:09:19;;;;;;;12.60;2.90;;;2.00;99.90;;;;;;4986448;28;20187;-79
2022/02/01 05:11:45;;;;;;;8.87;2.00;;;1.90;99.90;;;;;;4988606;28;20259;-79
2022/02/01 05:14:18;;;;;;;8.43;1.43;;;2.00;99.90;;;;;;4970486;28;20181;-79
2022/02/01 05:16:58;;;;;;;3.77;1.40;;;2.00;99.90;;;;;;4991680;28;20681;-78
2022/02/01 05:22:02;;;;;;;10.67;1.80;;;2.00;99.90;;;;;;4991742;28;20222;-79
2022/02/01 05:24:27;;;;;;;9.43;2.20;;;1.90;99.90;;;;;;4991510;28;20199;-82
2022/02/01 05:26:54;;;;;;;5.83;1.37;;;2.00;99.90;;;;;;4991255;28;20211;-81
2022/02/01 05:29:22;;;;;;;8.57;1.97;;;2.10;99.90;;;;;;4991671;28;20177;-81
2022/02/01 05:31:51;;;;;;;10.53;2.00;;;2.20;99.90;;;;;;4992287;28;20338;-81
2022/02/01 05:34:18;;;;;;;6.10;1.67;;;2.10;99.90;;;;;;4992310;28;20231;-80
2022/02/01 05:36:44;;;;;;;6.13;1.50;;;2.10;99.90;;;;;;4992122;28;20468;-81
2022/02/01 05:39:18;;;;;;;7.73;1.60;;;2.10;99.90;;;;;;4974306;28;20214;-78
2022/02/01 05:41:44;;;;;;;8.10;2.03;;;2.20;99.90;;;;;;4991068;28;20344;-80
2022/02/01 05:44:10;;;;;;;7.70;1.30;;;2.20;99.90;;;;;;4974028;28;20191;-78
2022/02/01 05:46:37;;;;;;;9.20;1.90;;;2.10;99.90;;;;;;4974316;28;21331;-76
2022/02/01 05:49:04;;;;;;;14.10;1.67;;;2.30;99.90;;;;;;4974463;28;20192;-78
2022/02/01 05:51:30;;;;;;;9.30;1.70;;;2.20;99.90;;;;;;4991860;28;20184;-81
2022/02/01 05:53:55;;;;;;;4.63;1.50;;;2.30;99.90;;;;;;4974181;28;20180;-78
2022/02/01 05:56:21;;;;;;;5.63;1.83;;;2.30;99.90;;;;;;4991974;28;20388;-79
2022/02/01 05:58:46;;;;;;;5.73;2.00;;;2.30;99.90;;;;;;4973787;28;20180;-77
2022/02/01 06:01:13;;;;;;;4.43;2.10;;;2.30;99.90;;;;;;4991938;28;20190;-78
2022/02/01 06:03:38;;;;;;;8.33;1.97;;;2.30;99.90;;;;;;4991032;28;20179;-76
2022/02/01 06:06:04;;;;;;;7.53;1.67;;;2.30;99.90;;;;;;4973906;28;20290;-75
2022/02/01 06:08:30;;;;;;;9.93;2.03;;;2.30;99.90;;;;;;4974143;28;20188;-78
2022/02/01 06:10:56;;;;;;;9.47;2.13;;;2.30;99.90;;;;;;4990664;28;20195;-75
2022/02/01 06:13:21;;;;;;;10.60;2.13;;;2.30;99.90;;;;;;4973516;28;20944;-79
2022/02/01 06:15:47;;;;;;;6.97;2.17;;;2.40;99.90;;;;;;4990732;28;20357;-79
2022/02/01 06:18:14;;;;;;;9.00;2.33;;;2.40;99.90;;;;;;4990557;28;20256;-76
2022/02/01 06:20:39;;;;;;;12.63;1.90;;;2.40;99.90;;;;;;4990583;28;20544;-78
2022/02/01 06:23:16;;;;;;;8.20;1.63;;;2.40;99.90;;;;;;4972900;28;20195;-78
2022/02/01 06:25:49;;;;;;;7.13;1.37;;;2.50;99.90;;;;;;4991223;28;20215;-80
2022/02/01 06:28:22;;;;;;;5.97;1.50;;;2.50;99.90;;;;;;4973060;28;21077;-75
2022/02/01 06:30:49;;;;;;;8.37;1.70;;;2.40;99.90;;;;;;4988645;28;20189;-79
2022/02/01 06:33:16;;;;;;;12.40;1.93;;;2.50;99.90;;;;;;4972452;28;20294;-79
2022/02/01 06:35:42;;;;;;;7.73;2.77;;;2.50;99.90;;;;;;4972508;28;20279;-80
2022/02/01 06:38:08;;;;;;;8.97;1.90;;;2.50;99.90;;;;;;4972676;28;20394;-79
2022/02/01 06:40:34;;;;;;;7.07;1.70;;;2.50;99.90;;;;;;4972019;28;20235;-79
2022/02/01 06:43:01;;;;;;;9.97;2.50;;;2.50;99.90;;;;;;4989558;28;20224;-81
2022/02/01 06:45:26;;;;;;;10.90;2.07;;;2.50;99.90;;;;;;4971500;28;20281;-78
2022/02/01 06:47:53;;;;;;;7.50;1.80;;;2.50;99.90;;;;;;4989954;28;20250;-80
2022/02/01 06:50:20;;;;;;;4.27;1.70;;;2.60;99.90;;;;;;4988918;28;20593;-76
2022/02/01 06:52:54;;;;;;;9.47;2.07;;;2.50;99.90;;;;;;4989982;28;20258;-77
2022/02/01 06:55:31;;;;;;;9.87;2.20;;;2.60;99.90;;;;;;4971017;28;20180;-78
2022/02/01 06:57:57;;;;;;;10.97;1.77;;;2.60;99.90;;;;;;4987556;28;20215;-76
2022/02/01 07:00:23;;;;;;;7.43;2.17;;;2.60;99.90;;;;;;4970105;28;20287;-79
2022/02/01 07:02:48;;;;;;;12.83;2.07;;;2.60;99.90;;;;;;4970376;28;20477;-76
2022/02/01 07:05:14;;;;;;;6.47;1.83;;;2.60;99.90;;;;;;4969849;28;20196;-77
2022/02/01 07:07:39;;;;;;;8.90;2.10;;;2.60;99.90;;;;;;4968797;28;20294;-77
2022/02/01 07:10:05;;;;;;;8.43;2.17;;;2.70;99.90;;;;;;4986151;28;20287;-75
2022/02/01 07:12:31;;;;;;;9.67;2.80;;;2.70;99.90;;;;;;4985415;28;20200;-75
2022/02/01 07:14:57;;;;;;;9.47;2.27;;;2.70;99.90;;;;;;4984039;28;20555;-76
2022/02/01 07:17:22;;;;;;;11.33;2.53;;;2.60;99.90;;;;;;4983772;28;20566;-76
2022/02/01 07:19:48;;;;;;;9.63;2.70;;;2.60;99.90;;;;;;4972238;28;20180;-78
2022/02/01 07:22:13;;;;;;;10.63;2.23;;;2.60;99.90;;;;;;4989905;28;20223;-76
2022/02/01 07:24:51;;;;;;;8.63;1.80;;;2.70;99.90;;;;;;4971778;28;20180;-78
2022/02/01 07:27:37;;;;;;;9.03;2.37;;;2.60;99.90;;;;;;4988676;28;20208;-79
2022/02/01 07:30:12;;;;;;;8.70;1.97;;;2.60;99.90;;;;;;4989571;28;20223;-76
2022/02/01 07:32:38;;;;;;;9.73;2.40;;;2.60;99.90;;;;;;4989679;28;20208;-76
2022/02/01 07:35:06;;;;;;;5.00;2.13;;;2.50;99.90;;;;;;4987779;28;20196;-80
2022/02/01 07:37:31;;;;;;;8.13;2.00;;;2.50;99.90;;;;;;4971135;28;20200;-77
2022/02/01 07:39:57;;;;;;;7.83;2.57;;;2.50;99.90;;;;;;4971600;28;20180;-77
2022/02/01 07:42:23;;;;;;;6.80;2.13;;;2.50;99.90;;;;;;4989389;28;20283;-78
2022/02/01 07:44:49;;;;;;;9.37;2.43;;;2.50;99.90;;;;;;4971899;28;20223;-80
2022/02/01 07:47:21;;;;;;;7.57;1.97;;;2.60;99.90;;;;;;4988909;28;20228;-78
2022/02/01 07:49:50;;;;;;;5.97;1.70;;;2.60;99.90;;;;;;4971422;28;20183;-78
2022/02/01 07:52:16;;;;;;;10.63;2.57;;;2.60;99.90;;;;;;4972632;28;20231;-80
2022/02/01 07:54:43;;;;;;;11.07;2.50;;;2.60;99.90;;;;;;4972567;28;20200;-78
2022/02/01 07:57:09;;;;;;;5.57;1.53;;;2.70;99.90;;;;;;4972896;28;20204;-78
2022/02/01 07:59:35;;;;;;;7.93;2.20;;;2.70;99.90;;;;;;4988000;28;20267;-78
2022/02/01 08:02:01;;;;;;;4.47;1.77;;;2.70;99.90;;;;;;4988733;28;20192;-78
2022/02/01 08:04:32;;;;;;;9.67;2.23;;;2.70;99.90;;;;;;4969559;28;20203;-80
2022/02/01 08:06:58;;;;;;;6.63;2.27;;;2.70;99.90;;;;;;4986766;28;20204;-75
2022/02/01 08:09:29;;;;;;;5.53;2.00;;;2.80;99.90;;;;;;4970107;28;20195;-78
2022/02/01 08:11:55;;;;;;;7.50;2.30;;;2.80;99.90;;;;;;4970864;28;20212;-79
2022/02/01 08:17:27;;;;;;;8.57;2.27;;;2.80;99.90;;;;;;4987405;28;20226;-76
2022/02/01 08:19:58;;;;;;;4.73;2.33;;;2.90;99.90;;;;;;4986091;28;20647;-78
2022/02/01 08:22:36;;;;;;;6.93;2.50;;;2.90;99.90;;;;;;4967213;28;20184;-80
2022/02/01 08:25:02;;;;;;;10.33;2.37;;;3.00;99.90;;;;;;4987465;28;20183;-78
2022/02/01 08:27:30;;;;;;;6.57;2.17;;;3.00;99.90;;;;;;4988606;28;20208;-75
2022/02/01 08:29:56;;;;;;;4.97;2.03;;;3.00;99.90;;;;;;4970039;28;20177;-80
2022/02/01 08:32:21;;;;;;;6.37;1.50;;;3.10;99.90;;;;;;4967812;28;20212;-77
2022/02/01 08:34:47;;;;;;;7.37;2.83;;;3.10;99.90;;;;;;4984720;28;20188;-77
2022/02/01 08:37:13;;;;;;;5.63;1.50;;;3.10;99.90;;;;;;4984785;28;20215;-79
2022/02/01 08:39:38;;;;;;;7.30;1.80;;;3.00;99.90;;;;;;4967528;28;20180;-77
2022/02/01 08:42:04;;;;;;;6.37;1.73;;;3.10;99.90;;;;;;4984204;28;20192;-75
2022/02/01 08:44:30;;;;;;;8.93;2.07;;;3.10;99.90;;;;;;4982972;28;20192;-78
2022/02/01 08:46:57;;;;;;;7.63;1.87;;;3.20;99.90;;;;;;4984470;28;20223;-77
2022/02/01 08:49:24;;;;;;;5.73;1.33;;;3.20;99.90;;;;;;4985270;28;20181;-78
2022/02/01 08:52:03;;;;;;;4.43;1.43;;;3.30;99.90;;;;;;4986480;28;20218;-76
2022/02/01 08:54:29;;;;;;;6.87;1.33;;;3.30;99.90;;;;;;4986264;28;20176;-77
2022/02/01 08:59:41;;;;;;;4.20;1.30;;;3.40;99.90;;;;;;4988173;28;20247;-79
2022/02/01 09:02:08;;;;;;;6.77;1.60;;;3.40;99.90;;;;;;4970332;28;20185;-78
2022/02/01 09:04:34;;;;;;;5.23;1.60;;;3.50;99.90;;;;;;4986539;28;20211;-77
2022/02/01 09:07:00;;;;;;;6.40;1.10;;;3.50;99.90;;;;;;4988389;28;20251;-79
2022/02/01 09:09:31;;;;;;;6.00;1.60;;;3.60;99.90;;;;;;4969974;28;20203;-77
2022/02/01 09:11:57;;;;;;;3.93;1.00;;;3.70;99.90;;;;;;4990534;28;20208;-81
2022/02/01 09:14:24;;;;;;;6.77;1.63;;;3.90;99.90;;;;;;4991015;28;20177;-78
2022/02/01 09:16:50;;;;;;;7.47;1.90;;;3.90;99.90;;;;;;4991222;28;20200;-79
2022/02/01 09:19:16;;;;;;;6.20;1.33;;;4.00;99.90;;;;;;4974165;28;20180;-79
2022/02/01 09:21:42;;;;;;;4.73;1.63;;;4.00;99.90;;;;;;4979863;28;20220;-81
2022/02/01 09:24:08;;;;;;;4.73;1.37;;;4.10;99.90;;;;;;4989411;28;20184;-79
2022/02/01 09:26:34;;;;;;;5.27;1.20;;;4.10;99.90;;;;;;4972212;28;21042;-80
2022/02/01 09:28:59;;;;;;;7.90;2.07;;;4.10;99.90;;;;;;4988386;28;20187;-79
2022/02/01 09:31:25;;;;;;;5.03;1.60;;;4.20;99.90;;;;;;4987920;28;20643;-80
2022/02/01 09:33:51;;;;;;;5.83;1.37;;;4.20;99.90;;;;;;4987328;28;20629;-79
2022/02/01 09:36:17;;;;;;;7.13;1.93;;;4.10;99.90;;;;;;4987265;28;20211;-77
2022/02/01 09:38:43;;;;;;;8.77;1.77;;;4.10;99.90;;;;;;4987378;28;20184;-80
2022/02/01 09:41:08;;;;;;;6.00;1.80;;;4.10;99.90;;;;;;4969679;28;20266;-80
2022/02/01 09:43:35;;;;;;;5.40;1.67;;;4.20;99.90;;;;;;4970123;28;20194;-80
2022/02/01 09:46:01;;;;;;;8.93;2.10;;;4.20;99.90;;;;;;4987847;28;20200;-80
2022/02/01 09:48:28;;;;;;;5.93;1.63;;;4.20;99.90;;;;;;4970269;28;20184;-78
2022/02/01 09:50:54;;;;;;;6.23;1.73;;;4.30;99.90;;;;;;4987787;28;20192;-80
2022/02/01 09:53:20;;;;;;;8.80;2.07;;;4.40;99.90;;;;;;4987283;28;20219;-81
2022/02/01 09:55:47;;;;;;;3.80;1.60;;;4.50;99.90;;;;;;4987294;28;20760;-78
2022/02/01 09:58:14;;;;;;;2.53;1.17;;;4.60;99.90;;;;;;4970068;28;20200;-81
2022/02/01 10:00:46;;;;;;;4.40;1.63;;;4.60;99.90;;;;;;4986674;28;20173;-80
2022/02/01 10:03:21;;;;;;;7.50;1.50;;;4.50;99.90;;;;;;4986031;28;20187;-80
2022/02/01 10:06:08;;;;;;;2.03;1.23;;;4.60;99.90;;;;;;4987048;28;20200;-79
2022/02/01 10:08:34;;;;;;;3.43;1.40;;;4.70;99.90;;;;;;4969459;28;20180;-78
2022/02/01 10:11:01;;;;;;;7.43;2.50;;;4.80;99.90;;;;;;4987062;28;20299;-77
2022/02/01 10:13:27;;;;;;;6.80;1.30;;;5.00;99.90;;;;;;4986900;28;20234;-77
2022/02/01 10:16:11;;;;;;;7.40;2.33;;;5.20;99.90;;;;;;4987412;28;20173;-79
2022/02/01 10:18:36;;;;;;;4.53;1.40;;;5.20;99.90;;;;;;4986070;28;20311;-78
2022/02/01 10:21:09;;;;;;;3.83;1.40;;;5.10;99.90;;;;;;4987161;28;20259;-79
2022/02/01 10:23:37;;;;;;;4.67;1.77;;;5.20;99.90;;;;;;4968155;28;20221;-78
2022/02/01 10:26:12;;;;;;;6.07;1.90;;;5.40;99.90;;;;;;4967106;28;20625;-80
2022/02/01 10:28:51;;;;;;;2.90;1.23;;;5.40;99.90;;;;;;4982608;28;20238;-79
2022/02/01 10:31:24;;;;;;;3.73;1.27;;;5.30;99.90;;;;;;4983204;28;20274;-77
2022/02/01 10:36:16;;;;;;;7.73;2.07;;;5.20;99.90;;;;;;4985127;28;20223;-78
2022/02/01 10:38:42;;;;;;;2.37;1.60;;;5.10;99.90;;;;;;4984932;28;20192;-77
2022/02/01 10:41:12;;;;;;;5.40;2.10;;;5.20;99.90;;;;;;4984714;28;20184;-79
2022/02/01 10:43:38;;;;;;;5.23;1.63;;;5.10;99.90;;;;;;4984392;28;20184;-78
2022/02/01 10:46:09;;;;;;;3.77;1.67;;;5.10;99.90;;;;;;4984859;28;20204;-79
2022/02/01 10:48:35;;;;;;;8.30;2.37;;;5.00;99.90;;;;;;4984922;28;20706;-79
2022/02/01 10:51:04;;;;;;;5.77;1.93;;;5.00;99.90;;;;;;4984225;28;20219;-77
2022/02/01 10:53:30;;;;;;;5.90;2.10;;;4.90;99.90;;;;;;4984619;28;20208;-79
2022/02/01 10:55:58;;;;;;;2.93;1.67;;;4.90;99.90;;;;;;4984293;28;20180;-79
2022/02/01 10:58:24;;;;;;;2.87;1.60;;;4.90;99.90;;;;;;4984553;28;20223;-80
2022/02/01 11:00:51;;;;;;;4.83;2.00;;;4.90;99.90;;;;;;4967317;28;20212;-78
2022/02/01 11:03:17;;;;;;;5.17;1.60;;;4.90;99.90;;;;;;4984297;28;20180;-78
2022/02/01 11:05:48;;;;;;;7.37;2.20;;;4.80;99.90;;;;;;4984475;28;20250;-76
2022/02/01 11:08:22;;;;;;;3.17;1.70;;;4.80;99.90;;;;;;4984586;28;20208;-77
2022/02/01 11:10:52;;;;;;;6.80;1.80;;;4.80;99.90;;;;;;4966950;28;20180;-79
2022/02/01 11:13:18;;;;;;;4.53;1.60;;;4.80;99.90;;;;;;4966060;28;20215;-79
2022/02/01 11:16:02;;;;;;;2.87;1.60;;;4.90;99.90;;;;;;4984127;28;20184;-79
2022/02/01 11:18:29;;;;;;;3.97;1.43;;;4.90;99.90;;;;;;4967497;28;20181;-76
2022/02/01 11:21:11;;;;;;;3.43;1.50;;;4.70;99.90;;;;;;4985671;28;20676;-78
2022/02/01 11:23:50;;;;;;;6.63;2.03;;;4.70;99.90;;;;;;4984994;28;20190;-79
2022/02/01 11:26:22;;;;;;;4.67;1.60;;;4.60;99.90;;;;;;4982510;28;20257;-75
2022/02/01 11:29:15;;;;;;;4.20;1.73;;;4.40;99.90;;;;;;4982117;28;20190;-76
2022/02/01 11:31:46;;;;;;;2.73;1.20;;;4.30;99.90;;;;;;4981691;28;20187;-78
2022/02/01 11:34:33;;;;;;;7.07;2.10;;;4.20;99.90;;;;;;4981803;28;20180;-79
2022/02/01 11:37:10;;;;;;;4.77;1.53;;;4.10;99.90;;;;;;4965090;28;20227;-77
2022/02/01 11:39:50;;;;;;;3.10;1.17;;;4.10;99.90;;;;;;4981922;28;20184;-77
2022/02/01 11:42:17;;;;;;;4.93;1.50;;;4.10;99.90;;;;;;4982151;28;20551;-78
2022/02/01 11:44:43;;;;;;;6.17;2.00;;;4.00;99.90;;;;;;4983556;28;20188;-78
2022/02/01 11:47:16;;;;;;;5.13;1.80;;;3.90;99.90;;;;;;4982977;28;20278;-80
2022/02/01 11:49:59;;;;;;;5.17;1.67;;;3.90;99.90;;;;;;4985264;28;20172;-76
2022/02/01 11:52:27;;;;;;;4.97;2.33;;;3.90;99.90;;;;;;4985490;28;20203;-79
2022/02/01 11:55:05;;;;;;;9.10;3.73;;;3.90;99.90;;;;;;4985502;28;20254;-79
2022/02/01 11:57:31;;;;;;;7.57;3.60;;;3.80;99.90;;;;;;4984623;28;20234;-81
2022/02/01 12:00:00;;;;;;;5.30;2.67;;;3.90;99.90;;;;;;4983746;28;20677;-76
2022/02/01 12:02:39;;;;;;;3.73;1.70;;;3.80;99.90;;;;;;4985328;28;20551;-76
2022/02/01 12:05:14;;;;;;;4.60;2.47;;;3.90;99.90;;;;;;4984964;28;20247;-75
2022/02/01 12:10:28;;;;;;;4.13;1.87;;;3.90;99.90;;;;;;4985398;28;20202;-79
2022/02/01 12:13:00;;;;;;;2.97;1.80;;;3.80;99.90;;;;;;4984980;28;20199;-77
2022/02/01 12:15:34;;;;;;;3.20;1.60;;;3.80;99.90;;;;;;4967768;28;20176;-78
2022/02/01 12:18:38;;;;;;;3.37;1.67;;;3.80;99.90;;;;;;4966966;28;20208;-77
2022/02/01 12:21:29;;;;;;;3.20;1.73;;;3.80;99.90;;;;;;4981810;28;20551;-79
2022/02/01 12:23:59;;;;;;;3.23;1.20;;;3.80;99.90;;;;;;4984516;28;21167;-76
2022/02/01 12:26:28;;;;;;;2.17;1.50;;;3.80;99.90;;;;;;4987414;28;20218;-77
2022/02/01 12:28:56;;;;;;;4.00;1.50;;;3.80;99.90;;;;;;4971462;28;20192;-80
2022/02/01 12:31:24;;;;;;;5.00;1.90;;;3.80;99.90;;;;;;4988290;28;20179;-79
2022/02/01 12:33:55;;;;;;;2.77;1.73;;;3.80;99.90;;;;;;4970818;28;20208;-77
2022/02/01 12:36:27;;;;;;;2.93;1.80;;;3.90;99.90;;;;;;4985569;28;20294;-78
2022/02/01 12:39:00;;;;;;;4.00;2.23;;;3.90;99.90;;;;;;4970392;28;20323;-79
2022/02/01 12:41:31;;;;;;;2.40;1.57;;;3.90;99.90;;;;;;4987512;28;20625;-77
2022/02/01 12:48:55;;;;;;;2.60;1.53;;;3.90;99.90;;;;;;4987892;28;20251;-78
2022/02/01 12:51:21;;;;;;;2.10;1.40;;;4.00;99.90;;;;;;4987134;28;20180;-79
2022/02/01 12:53:48;;;;;;;2.30;1.30;;;4.00;99.90;;;;;;4988147;28;20199;-77
2022/02/01 12:56:17;;;;;;;1.50;1.13;;;4.00;99.90;;;;;;4986821;28;20212;-80
2022/02/01 12:58:43;;;;;;;2.87;1.30;;;4.00;99.90;;;;;;4987525;28;20643;-77
2022/02/01 13:01:08;;;;;;;1.97;1.17;;;4.10;99.90;;;;;;4968219;28;20245;-78
2022/02/01 13:03:44;;;;;;;1.63;1.00;;;4.00;99.90;;;;;;4985435;28;20313;-79
2022/02/01 13:06:12;;;;;;;1.87;1.00;;;4.10;99.90;;;;;;4968448;28;20275;-77
2022/02/01 13:12:55;;;;;;;1.10;1.00;;;4.10;99.90;;;;;;4987567;28;20267;-79
2022/02/01 13:17:14;;;;;;;2.73;0.80;;;4.30;99.90;;;;;;4988400;28;20748;-79
2022/02/01 13:20:11;;;;;;;1.10;0.90;;;4.30;99.90;;;;;;4987455;28;20191;-80
2022/02/01 13:22:56;;;;;;;2.10;0.90;;;4.30;99.90;;;;;;4969655;28;20188;-81
2022/02/01 13:25:31;;;;;;;1.57;0.87;;;4.30;99.90;;;;;;4987543;28;20589;-78
2022/02/01 13:27:58;;;;;;;1.23;0.90;;;4.20;99.90;;;;;;4969868;28;20570;-79
2022/02/01 13:30:24;;;;;;;1.53;1.10;;;4.20;99.90;;;;;;4987623;28;20888;-78
2022/02/01 13:32:51;;;;;;;4.40;0.80;;;4.10;99.90;;;;;;4987304;28;20292;-79
2022/02/01 13:35:16;;;;;;;0.80;0.80;;;4.20;99.90;;;;;;4970113;28;20196;-80
2022/02/01 13:37:47;;;;;;;0.93;0.70;;;4.20;99.90;;;;;;4985159;28;20255;-78
2022/02/01 13:40:30;;;;;;;2.97;1.30;;;4.20;99.90;;;;;;4984973;28;20243;-77
2022/02/01 13:42:57;;;;;;;1.60;0.90;;;4.20;99.90;;;;;;4986207;28;20188;-80
2022/02/01 13:45:35;;;;;;;0.77;0.77;;;4.30;99.90;;;;;;4985800;28;20267;-77
2022/02/01 13:48:00;;;;;;;0.77;0.77;;;4.30;99.90;;;;;;4978251;28;20224;-79
2022/02/01 13:50:26;;;;;;;0.63;0.60;;;4.30;99.90;;;;;;4982110;28;20664;-78
2022/02/01 13:53:02;;;;;;;1.90;1.17;;;4.30;99.90;;;;;;4982459;28;20203;-78
2022/02/01 13:55:29;;;;;;;0.50;0.50;;;4.40;99.90;;;;;;4981174;28;20179;-79
2022/02/01 13:58:18;;;;;;;0.80;0.80;;;4.40;99.90;;;;;;4982659;28;20290;-78
2022/02/01 14:00:53;;;;;;;0.93;0.60;;;4.40;99.90;;;;;;4982061;28;20193;-78
2022/02/01 14:03:38;;;;;;;0.80;0.67;;;4.40;99.90;;;;;;4982026;28;20271;-78
2022/02/01 14:08:56;;;;;;;0.50;0.50;;;4.40;99.90;;;;;;4982124;28;20188;-77
2022/02/01 14:11:45;;;;;;;1.60;0.83;;;4.30;99.90;;;;;;4981672;28;20187;-79
2022/02/01 14:25:36;;;;;;;1.40;1.30;;;4.50;99.90;;;;;;4984074;28;20187;-77
2022/02/01 14:33:18;;;;;;;0.93;0.83;;;4.60;99.90;;;;;;4981830;28;20664;-78
2022/02/01 14:35:23;;;;;;;0.70;0.67;;;4.50;99.90;;;;;;4984060;28;20191;-76
2022/02/01 14:38:12;;;;;;;0.70;0.70;;;4.50;99.90;;;;;;4986238;28;20200;-77
2022/02/01 14:43:40;;;;;;;0.60;0.60;;;4.50;99.90;;;;;;4985538;28;20654;-76
2022/02/01 14:46:06;;;;;;;0.80;0.73;;;4.60;99.90;;;;;;4967679;28;20206;-77
2022/02/01 14:48:36;;;;;;;1.03;0.90;;;4.60;99.90;;;;;;4983314;28;20180;-76
2022/02/01 14:51:06;;;;;;;0.70;0.70;;;4.60;99.90;;;;;;4986197;28;20176;-76
2022/02/01 14:53:32;;;;;;;0.60;0.60;;;4.60;99.90;;;;;;4986367;28;20211;-76
2022/02/01 14:56:08;;;;;;;0.60;0.50;;;4.60;99.90;;;;;;4984112;28;20907;-76
2022/02/01 15:04:22;;;;;;;1.40;0.80;;;4.70;99.90;;;;;;4985887;28;20203;-77
2022/02/01 15:14:57;;;;;;;1.40;1.20;;;4.80;99.90;;;;;;4985986;28;20196;-77
2022/02/01 15:17:22;;;;;;;2.67;2.20;;;4.90;99.90;;;;;;4968478;28;20291;-78